Terra Ceia, Florida
Current Conditions -  °F | °C
As of 2:53 PM on Thursday 27 Nov 2014 (Local Time) from KSRQ Reporting Station
Few Clouds Few Clouds  
Wind Chill: 68°   Ceiling: Unl
Heat Index: 68°   Visibility: 10mi
Dew Point: 51°   Wind: 15mph
Humidity: 55%   Direction: 320°NW
Pressure: 30.19"   Gusts: NA
Location:  27.58°N, 82.58°W
Report Text: KSRQ 271953Z 32013KT 10SM FEW035 20/11 A3019 RMK AO2 SLP223 T02000106
Loading
Personal Weather Stations






























Interactive Weather Map New forecast layout! Learn more

10-Day Weather Forecast

Advertisements
Track Severe Weather on mobile